Time;durP1;ratioP1;P1;durP2;ratioP2;P2;SDS_P1;SDS_P2;PMS_P1;PMS_P2;Temp;Humidity;BMP_temperature;BMP_pressure;BME280_temperature;BME280_humidity;BME280_pressure;Samples;Min_cycle;Max_cycle;Signal;HPM_P1;HPM_P2
2023/06/14 00:03:22;;;;;;;1.58;1.10;;;;;;;13.52;100.00;98238.69;15284405;19;20014;-43
2023/06/14 00:08:51;;;;;;;1.90;1.00;;;;;;;13.46;100.00;98226.72;15281894;19;20018;-42
2023/06/14 00:14:15;;;;;;;2.05;1.30;;;;;;;13.42;100.00;98214.59;15279193;19;20025;-43
2023/06/14 00:19:40;;;;;;;2.50;1.20;;;;;;;13.40;100.00;98222.91;15280111;19;20022;-43
2023/06/14 00:25:07;;;;;;;1.73;1.30;;;;;;;13.32;100.00;98238.31;15280998;19;20022;-43
2023/06/14 00:30:47;;;;;;;1.80;1.30;;;;;;;13.18;100.00;98238.09;15277836;19;20033;-42
2023/06/14 00:36:13;;;;;;;3.33;1.27;;;;;;;13.08;100.00;98245.63;15279390;19;20044;-42
2023/06/14 00:41:41;;;;;;;3.03;1.30;;;;;;;12.98;100.00;98228.81;15277000;19;20011;-41
2023/06/14 00:47:06;;;;;;;1.70;1.30;;;;;;;12.90;100.00;98235.13;15275617;19;20022;-42
2023/06/14 00:52:37;;;;;;;5.43;1.40;;;;;;;12.80;100.00;98238.06;15278817;19;20022;-41
2023/06/14 00:58:04;;;;;;;2.10;1.40;;;;;;;12.70;100.00;98240.16;15279884;19;20018;-42
2023/06/14 01:03:29;;;;;;;2.30;1.20;;;;;;;12.59;100.00;98238.72;15281204;19;20085;-46
2023/06/14 01:09:03;;;;;;;2.33;1.30;;;;;;;12.51;100.00;98236.94;15273282;19;20019;-44
2023/06/14 01:14:33;;;;;;;2.30;1.30;;;;;;;12.43;100.00;98245.91;15281571;19;20015;-44
2023/06/14 01:20:00;;;;;;;3.17;1.30;;;;;;;12.39;100.00;98244.56;15269861;19;20081;-44
2023/06/14 01:25:28;;;;;;;7.32;1.38;;;;;;;12.34;100.00;98249.69;15275471;19;20011;-42
2023/06/14 01:30:57;;;;;;;2.45;1.40;;;;;;;12.25;100.00;98239.91;15276965;19;20029;-41
2023/06/14 01:36:22;;;;;;;3.10;1.17;;;;;;;12.19;100.00;98249.56;15279334;19;20009;-44
2023/06/14 01:41:52;;;;;;;3.88;1.10;;;;;;;12.12;100.00;98243.19;15278176;19;20037;-42
2023/06/14 01:47:17;;;;;;;2.58;1.30;;;;;;;12.05;100.00;98240.34;15296233;19;20014;-43
2023/06/14 01:52:48;;;;;;;5.50;1.30;;;;;;;12.05;100.00;98240.34;15281236;19;20022;-42
2023/06/14 01:58:16;;;;;;;2.87;1.30;;;;;;;12.05;100.00;98236.81;15303762;19;20568;-42
2023/06/14 02:03:42;;;;;;;2.05;1.10;;;;;;;12.08;100.00;98242.72;15289515;19;20006;-42
2023/06/14 02:09:00;;;;;;;1.85;1.20;;;;;;;12.05;100.00;98245.75;15290115;19;20546;-42
2023/06/14 02:14:27;;;;;;;2.97;1.15;;;;;;;12.03;100.00;98253.19;15287400;19;20015;-42
2023/06/14 02:19:46;;;;;;;2.05;1.10;;;;;;;11.98;100.00;98245.59;15288180;19;20024;-41
2023/06/14 02:25:10;;;;;;;3.22;1.20;;;;;;;11.88;100.00;98256.56;15282832;19;20018;-41
2023/06/14 02:30:38;;;;;;;4.50;1.20;;;;;;;11.83;100.00;98260.81;15285076;19;20481;-42
2023/06/14 02:36:06;;;;;;;2.20;1.08;;;;;;;11.83;100.00;98255.41;15292512;19;20050;-44
2023/06/14 02:41:31;;;;;;;3.33;1.27;;;;;;;11.80;100.00;98251.22;15285823;19;20022;-42
2023/06/14 02:46:58;;;;;;;3.08;1.25;;;;;;;11.68;100.00;98260.69;15285848;19;20498;-43
2023/06/14 02:52:29;;;;;;;1.85;1.13;;;;;;;11.63;100.00;98258.50;15283261;19;20018;-43
2023/06/14 02:57:54;;;;;;;2.00;1.07;;;;;;;11.59;100.00;98262.56;15289540;19;20478;-44
2023/06/14 03:03:24;;;;;;;3.05;1.00;;;;;;;11.52;100.00;98266.97;15289295;19;20011;-43
2023/06/14 03:08:49;;;;;;;1.40;1.00;;;;;;;11.42;100.00;98267.13;15291075;19;20015;-43
2023/06/14 03:14:14;;;;;;;2.60;1.10;;;;;;;11.35;100.00;98279.63;15290036;19;20478;-43
2023/06/14 03:19:41;;;;;;;2.72;1.02;;;;;;;11.32;100.00;98280.81;15279152;19;20022;-42
2023/06/14 03:25:08;;;;;;;1.48;1.00;;;;;;;11.12;100.00;98279.44;15284924;19;20093;-44
2023/06/14 03:30:35;;;;;;;3.17;1.10;;;;;;;10.99;100.00;98291.59;15294038;19;20019;-45
2023/06/14 03:36:02;;;;;;;5.28;1.20;;;;;;;10.83;100.00;98297.78;15334777;19;20013;-48
2023/06/14 03:41:28;;;;;;;2.58;1.23;;;;;;;10.75;100.00;98306.72;15302977;19;20073;-44
2023/06/14 03:46:53;;;;;;;2.13;0.93;;;;;;;10.73;100.00;98305.19;15316232;19;20060;-44
2023/06/14 03:52:21;;;;;;;4.32;1.20;;;;;;;10.72;100.00;98319.66;15298629;19;20017;-42
2023/06/14 03:57:46;;;;;;;5.07;1.10;;;;;;;10.67;100.00;98316.63;15295626;19;20030;-43
2023/06/14 04:03:13;;;;;;;1.85;1.10;;;;;;;10.69;100.00;98322.72;15294831;19;20006;-43
2023/06/14 04:08:42;;;;;;;2.83;1.08;;;;;;;10.69;100.00;98330.78;15285927;19;20507;-46
2023/06/14 04:14:08;;;;;;;1.95;1.10;;;;;;;10.69;100.00;98328.94;15284847;19;20014;-44
2023/06/14 04:19:33;;;;;;;2.10;1.10;;;;;;;10.71;100.00;98329.63;15278399;19;20041;-41
2023/06/14 04:25:01;;;;;;;1.45;1.02;;;;;;;10.76;100.00;98331.81;15276913;19;20026;-48
2023/06/14 04:30:31;;;;;;;2.45;1.15;;;;;;;10.79;100.00;98347.66;15272037;19;20038;-43
2023/06/14 04:36:04;;;;;;;3.88;1.20;;;;;;;10.85;100.00;98348.84;15281663;19;20371;-45
2023/06/14 04:41:34;;;;;;;2.17;1.27;;;;;;;10.92;100.00;98339.94;15278214;19;20201;-44
2023/06/14 04:47:00;;;;;;;2.08;1.20;;;;;;;10.97;100.00;98352.06;15280808;19;20042;-44
2023/06/14 04:52:32;;;;;;;4.18;1.25;;;;;;;11.07;100.00;98356.31;15282132;19;20030;-46
2023/06/14 04:58:00;;;;;;;1.90;1.00;;;;;;;11.19;100.00;98364.06;15274043;19;20025;-45
2023/06/14 05:03:26;;;;;;;1.50;1.13;;;;;;;11.28;100.00;98370.31;15274310;19;20011;-41
2023/06/14 05:08:51;;;;;;;2.13;1.20;;;;;;;11.43;100.00;98370.50;15275111;19;20482;-45
2023/06/14 05:14:18;;;;;;;2.70;1.00;;;;;;;11.56;100.00;98376.25;15282260;19;21457;-42
2023/06/14 05:19:44;;;;;;;2.25;1.10;;;;;;;11.70;100.00;98372.84;15290018;19;20479;-49
2023/06/14 05:25:08;;;;;;;2.00;1.10;;;;;;;11.82;100.00;98372.47;15291561;19;20476;-45
2023/06/14 05:30:36;;;;;;;1.60;1.10;;;;;;;11.96;100.00;98374.50;15285384;19;20018;-44
2023/06/14 05:36:00;;;;;;;1.63;1.10;;;;;;;12.10;100.00;98382.94;15289514;19;20541;-45
2023/06/14 05:41:27;;;;;;;1.85;1.20;;;;;;;12.25;100.00;98383.94;15288491;19;20359;-43
2023/06/14 05:46:54;;;;;;;2.35;1.23;;;;;;;12.41;100.00;98382.16;15289991;19;20039;-42
2023/06/14 05:52:26;;;;;;;2.15;1.20;;;;;;;12.56;100.00;98376.91;15287195;19;20014;-49
2023/06/14 05:57:51;;;;;;;2.17;1.00;;;;;;;12.69;100.00;98382.59;15290888;19;20022;-47
2023/06/14 06:03:18;;;;;;;2.58;1.10;;;;;;;12.83;100.00;98386.41;15290053;19;20055;-43
2023/06/14 06:08:43;;;;;;;2.05;1.20;;;;;;;12.98;100.00;98382.97;15283074;19;20018;-42
2023/06/14 06:14:07;;;;;;;1.80;1.20;;;;;;;13.11;100.00;98383.22;15292566;19;20019;-44
2023/06/14 06:19:35;;;;;;;3.45;1.30;;;;;;;13.28;100.00;98388.50;15289157;19;20029;-42
2023/06/14 06:24:59;;;;;;;2.95;1.20;;;;;;;13.39;100.00;98396.22;15290778;19;20018;-43
2023/06/14 06:30:24;;;;;;;2.42;1.23;;;;;;;13.53;100.00;98403.59;15284744;19;20014;-42
2023/06/14 06:35:51;;;;;;;2.90;1.30;;;;;;;13.66;100.00;98415.66;15288147;19;20478;-41
2023/06/14 06:41:16;;;;;;;2.17;1.40;;;;;;;13.81;100.00;98415.72;15281208;19;20042;-47
2023/06/14 06:46:42;;;;;;;2.42;1.30;;;;;;;14.00;100.00;98420.59;15285714;19;20041;-46
2023/06/14 06:52:17;;;;;;;1.75;1.25;;;;;;;14.20;100.00;98414.69;15283052;19;20019;-42
2023/06/14 06:57:42;;;;;;;1.67;1.30;;;;;;;14.37;100.00;98409.06;15288023;19;20014;-43
2023/06/14 07:03:06;;;;;;;2.35;1.40;;;;;;;14.53;100.00;98421.59;15282991;19;20021;-44
2023/06/14 07:08:34;;;;;;;3.70;1.40;;;;;;;14.63;100.00;98430.31;15285948;19;20021;-44
2023/06/14 07:13:58;;;;;;;2.65;1.35;;;;;;;14.72;100.00;98434.63;15283394;19;20424;-44
2023/06/14 07:19:23;;;;;;;1.48;1.20;;;;;;;14.79;100.00;98430.13;15285483;19;20025;-45
2023/06/14 07:24:53;;;;;;;4.55;1.50;;;;;;;14.98;100.00;98444.16;15284691;19;20749;-41
2023/06/14 07:30:19;;;;;;;2.38;1.40;;;;;;;15.14;100.00;98442.25;15283247;19;20019;-42
2023/06/14 07:35:43;;;;;;;2.17;1.25;;;;;;;15.23;100.00;98446.53;15281637;19;20677;-41
2023/06/14 07:41:11;;;;;;;3.30;1.27;;;;;;;15.39;100.00;98457.16;15282189;19;20020;-44
2023/06/14 07:46:37;;;;;;;3.47;1.40;;;;;;;15.54;100.00;98446.25;15281413;19;20028;-42
2023/06/14 07:52:04;;;;;;;3.22;1.20;;;;;;;15.64;100.00;98445.13;15279414;19;20025;-43
2023/06/14 07:57:31;;;;;;;2.65;1.38;;;;;;;15.83;100.00;98446.31;15283444;19;20029;-44
2023/06/14 08:02:58;;;;;;;2.28;1.23;;;;;;;16.01;100.00;98438.59;15285344;19;20025;-44
2023/06/14 08:08:22;;;;;;;2.83;1.05;;;;;;;16.19;100.00;98423.66;15278372;19;20020;-53
2023/06/14 08:13:50;;;;;;;2.38;1.35;;;;;;;16.31;100.00;98435.66;15282363;19;20094;-42
2023/06/14 08:19:16;;;;;;;1.85;1.20;;;;;;;16.51;100.00;98442.28;15275718;19;20010;-42
2023/06/14 08:24:42;;;;;;;4.75;1.30;;;;;;;16.77;100.00;98438.88;15282954;19;20364;-48
2023/06/14 08:30:10;;;;;;;2.72;1.27;;;;;;;16.97;100.00;98441.72;15282588;19;20014;-42
2023/06/14 08:35:37;;;;;;;1.60;1.10;;;;;;;17.15;100.00;98438.47;15282687;19;20018;-48
2023/06/14 08:41:06;;;;;;;5.28;1.20;;;;;;;17.37;100.00;98435.59;15273857;19;20014;-48
2023/06/14 08:46:36;;;;;;;2.20;1.20;;;;;;;17.66;100.00;98439.84;15279487;19;20022;-42
2023/06/14 08:52:06;;;;;;;2.10;1.10;;;;;;;17.74;100.00;98438.81;15273364;19;20095;-43
2023/06/14 08:57:34;;;;;;;4.50;1.27;;;;;;;17.95;100.00;98436.94;15279757;19;20025;-43
2023/06/14 09:03:03;;;;;;;2.38;1.10;;;;;;;18.14;100.00;98463.44;15282334;19;20070;-43
2023/06/14 09:08:30;;;;;;;3.15;1.10;;;;;;;18.28;100.00;98439.72;15275358;19;20016;-47
2023/06/14 09:13:55;;;;;;;4.40;1.00;;;;;;;18.39;100.00;98445.56;15276283;19;20657;-46
2023/06/14 09:19:27;;;;;;;2.22;1.17;;;;;;;18.58;100.00;98452.88;15273446;19;20472;-49
2023/06/14 09:24:51;;;;;;;5.80;0.90;;;;;;;18.68;100.00;98455.19;15277413;19;20010;-46
2023/06/14 09:30:16;;;;;;;1.38;0.85;;;;;;;18.72;99.94;98459.19;15274865;19;20366;-43
2023/06/14 09:35:46;;;;;;;1.85;0.80;;;;;;;18.90;100.00;98457.66;15278104;19;20481;-49
2023/06/14 09:41:11;;;;;;;3.15;0.93;;;;;;;19.22;94.69;98444.97;15273577;19;20029;-50
2023/06/14 09:46:36;;;;;;;0.90;0.80;;;;;;;19.49;90.78;98453.03;15267761;19;20035;-43
2023/06/14 09:52:05;;;;;;;1.77;0.90;;;;;;;19.89;82.50;98451.97;15264602;19;20019;-43
2023/06/14 09:57:34;;;;;;;4.25;0.98;;;;;;;20.10;83.74;98450.78;15276782;19;20105;-49
2023/06/14 10:03:03;;;;;;;1.63;1.00;;;;;;;19.83;82.13;98458.28;15279644;19;20375;-47
2023/06/14 10:08:36;;;;;;;2.63;0.82;;;;;;;19.97;79.23;98451.69;15288479;19;20037;-46
2023/06/14 10:14:02;;;;;;;0.98;0.70;;;;;;;20.04;77.29;98459.03;15295294;19;20015;-44
2023/06/14 10:19:34;;;;;;;0.80;0.80;;;;;;;19.75;77.34;98455.81;15284616;19;20042;-43
2023/06/14 10:25:03;;;;;;;2.20;0.80;;;;;;;19.86;76.57;98457.88;15281004;19;20010;-46
2023/06/14 10:30:34;;;;;;;1.65;0.73;;;;;;;20.00;73.54;98448.53;15285702;19;20093;-49
2023/06/14 10:36:13;;;;;;;5.38;0.90;;;;;;;20.20;68.58;98436.56;15291160;19;20014;-43
2023/06/14 10:41:44;;;;;;;4.72;0.77;;;;;;;20.45;71.63;98443.94;15281739;19;20017;-43
2023/06/14 10:47:11;;;;;;;3.10;0.80;;;;;;;20.51;64.83;98439.47;15287229;19;20014;-47
2023/06/14 10:52:38;;;;;;;4.00;0.90;;;;;;;20.60;65.66;98425.25;15277488;19;20029;-46
2023/06/14 10:58:07;;;;;;;1.65;0.82;;;;;;;20.51;62.19;98429.38;15280061;19;20010;-46
2023/06/14 11:04:00;;;;;;;3.72;0.70;;;;;;;20.61;59.53;98432.41;15286669;19;20024;-44
2023/06/14 11:09:54;;;;;;;4.20;0.90;;;;;;;20.79;58.38;98428.03;15285454;19;20029;-44
2023/06/14 11:15:21;;;;;;;2.08;0.90;;;;;;;20.81;60.66;98433.31;15281542;19;20078;-45
2023/06/14 11:20:49;;;;;;;3.00;0.70;;;;;;;21.03;57.08;98428.19;15275862;19;20126;-43
2023/06/14 11:26:14;;;;;;;1.10;0.70;;;;;;;21.11;59.29;98436.09;15276820;19;20799;-43
2023/06/14 11:31:46;;;;;;;3.40;1.00;;;;;;;21.08;57.18;98429.16;15272026;19;20358;-44
2023/06/14 11:37:10;;;;;;;4.13;0.90;;;;;;;21.36;56.30;98425.03;15287131;19;20041;-44
2023/06/14 11:42:35;;;;;;;1.35;0.80;;;;;;;21.62;55.35;98422.16;15283630;19;20018;-45
2023/06/14 11:48:03;;;;;;;1.77;1.00;;;;;;;21.57;57.01;98422.00;15283206;19;20029;-44
2023/06/14 11:53:28;;;;;;;2.90;0.90;;;;;;;21.30;54.98;98422.38;15281359;19;20019;-44
2023/06/14 11:58:53;;;;;;;3.42;0.80;;;;;;;21.13;56.31;98412.03;15284110;19;20833;-44
2023/06/14 12:04:26;;;;;;;1.40;0.90;;;;;;;20.90;54.85;98412.75;15281740;19;20022;-45
2023/06/14 12:09:51;;;;;;;1.73;0.95;;;;;;;21.27;57.24;98409.97;15283069;19;20415;-47
2023/06/14 12:15:16;;;;;;;2.90;1.00;;;;;;;21.16;54.96;98406.09;15285747;19;20011;-45
2023/06/14 12:20:45;;;;;;;4.22;0.80;;;;;;;21.49;54.86;98404.81;15282744;19;20035;-45
2023/06/14 12:26:10;;;;;;;2.63;0.95;;;;;;;21.66;53.64;98395.97;15277072;19;20011;-45
2023/06/14 12:31:35;;;;;;;1.40;0.77;;;;;;;22.06;51.80;98392.56;15283089;19;20017;-46
2023/06/14 12:37:04;;;;;;;2.83;0.85;;;;;;;22.44;50.80;98399.53;15279429;19;20021;-44
2023/06/14 12:42:29;;;;;;;2.15;0.65;;;;;;;22.85;50.42;98398.78;15279750;19;20018;-47
2023/06/14 12:47:54;;;;;;;1.85;0.70;;;;;;;22.91;49.65;98397.78;15282445;19;20006;-45
2023/06/14 12:53:29;;;;;;;2.50;0.70;;;;;;;22.70;51.08;98408.34;15278424;19;20362;-48
2023/06/14 12:58:54;;;;;;;4.60;0.85;;;;;;;22.98;50.76;98405.91;15277309;19;20017;-45
2023/06/14 13:04:18;;;;;;;3.55;0.60;;;;;;;22.98;52.24;98398.50;15284381;19;20014;-44
2023/06/14 13:09:47;;;;;;;3.47;1.00;;;;;;;23.18;48.51;98394.50;15274188;19;20026;-46
2023/06/14 13:15:11;;;;;;;3.13;0.90;;;;;;;23.00;49.78;98388.09;15284732;19;20025;-47
2023/06/14 13:20:35;;;;;;;2.72;0.80;;;;;;;23.23;49.00;98389.13;15273033;19;20026;-46
2023/06/14 13:26:03;;;;;;;2.85;0.70;;;;;;;23.41;47.55;98390.00;15279616;19;20014;-45
2023/06/14 13:31:27;;;;;;;2.05;0.52;;;;;;;23.57;47.17;98393.88;15273631;19;20059;-46
2023/06/14 13:36:52;;;;;;;1.20;0.70;;;;;;;23.84;46.30;98385.81;15284948;19;20017;-44
2023/06/14 13:42:19;;;;;;;1.20;0.68;;;;;;;24.25;45.50;98382.94;15291615;19;20023;-45
2023/06/14 13:47:44;;;;;;;0.63;0.60;;;;;;;24.85;44.30;98380.50;15290950;19;20358;-45
2023/06/14 13:53:30;;;;;;;1.25;0.60;;;;;;;24.85;44.59;98384.09;15289129;19;20081;-44
2023/06/14 13:59:11;;;;;;;2.15;0.60;;;;;;;24.88;45.06;98386.31;15290414;19;20014;-45
2023/06/14 14:04:53;;;;;;;0.70;0.55;;;;;;;24.49;45.03;98389.09;15287634;19;20347;-45
2023/06/14 14:10:32;;;;;;;1.25;0.60;;;;;;;25.02;45.24;98394.22;15266711;19;20009;-45
2023/06/14 14:16:21;;;;;;;4.45;0.70;;;;;;;25.53;43.44;98389.31;15281858;19;20025;-45
2023/06/14 14:22:01;;;;;;;1.17;0.50;;;;;;;25.62;43.57;98391.59;15284112;19;20040;-45
2023/06/14 14:27:39;;;;;;;0.47;0.47;;;;;;;25.80;43.53;98399.50;15278313;19;20022;-48
2023/06/14 14:33:21;;;;;;;2.95;0.60;;;;;;;25.91;41.66;98394.06;15282916;19;20019;-47
2023/06/14 14:39:00;;;;;;;1.33;0.40;;;;;;;25.35;42.58;98397.88;15276591;19;20019;-47
2023/06/14 14:44:24;;;;;;;1.13;0.50;;;;;;;24.51;43.46;98392.44;15277932;19;20024;-46
2023/06/14 14:49:52;;;;;;;1.00;0.40;;;;;;;24.66;43.31;98386.28;15278061;19;20021;-46
2023/06/14 14:55:17;;;;;;;0.90;0.50;;;;;;;25.27;43.92;98388.19;15287438;19;20010;-45
2023/06/14 15:00:41;;;;;;;3.00;0.40;;;;;;;25.87;42.08;98390.16;15284345;19;20025;-46
2023/06/14 15:06:08;;;;;;;2.65;0.50;;;;;;;25.37;42.61;98398.47;15288285;19;20010;-45
2023/06/14 15:11:33;;;;;;;1.05;0.45;;;;;;;24.58;45.29;98398.56;15275336;19;20485;-45
2023/06/14 15:16:58;;;;;;;0.82;0.47;;;;;;;24.04;45.21;98398.31;15279378;19;20362;-48
2023/06/14 15:22:28;;;;;;;1.33;0.50;;;;;;;23.77;48.58;98396.16;15278392;19;20475;-45
2023/06/14 15:27:52;;;;;;;1.90;0.50;;;;;;;23.52;49.67;98398.19;15281502;19;20058;-46
2023/06/14 15:33:17;;;;;;;0.98;0.70;;;;;;;23.80;50.42;98398.44;15282850;19;20025;-46
2023/06/14 15:38:44;;;;;;;5.20;0.70;;;;;;;24.14;51.79;98403.97;15283412;19;20007;-45
2023/06/14 15:44:09;;;;;;;2.05;0.65;;;;;;;24.14;50.86;98404.78;15278232;19;20014;-46
2023/06/14 15:49:34;;;;;;;0.60;0.60;;;;;;;23.79;51.73;98407.75;15271879;19;20010;-49
2023/06/14 15:55:09;;;;;;;1.70;0.70;;;;;;;23.38;53.23;98407.84;15277699;19;20010;-48
2023/06/14 16:00:34;;;;;;;2.67;0.60;;;;;;;22.81;54.14;98408.56;15280428;19;20037;-48
2023/06/14 16:05:59;;;;;;;2.47;0.77;;;;;;;22.54;54.81;98406.31;15281586;19;20440;-47
2023/06/14 16:11:26;;;;;;;1.20;1.00;;;;;;;22.29;57.19;98402.72;15280859;19;20478;-46
2023/06/14 16:16:51;;;;;;;3.67;0.80;;;;;;;22.18;57.68;98406.31;15280493;19;20030;-46
2023/06/14 16:22:15;;;;;;;1.33;0.52;;;;;;;22.06;59.41;98411.75;15270127;19;20023;-47
2023/06/14 16:27:43;;;;;;;1.27;0.70;;;;;;;21.97;58.91;98410.44;15278184;19;20024;-49
2023/06/14 16:33:08;;;;;;;1.50;0.55;;;;;;;21.87;59.30;98413.78;15282039;19;20035;-46
2023/06/14 16:38:39;;;;;;;2.40;0.60;;;;;;;21.81;59.77;98411.97;15275145;19;20015;-47
2023/06/14 16:44:03;;;;;;;0.57;0.57;;;;;;;22.17;58.61;98416.44;15277766;19;20017;-45
2023/06/14 16:49:28;;;;;;;3.25;0.88;;;;;;;22.78;57.12;98416.22;15275896;19;20926;-45
2023/06/14 16:55:00;;;;;;;2.67;0.50;;;;;;;23.31;55.64;98418.13;15265759;19;20017;-44
2023/06/14 17:00:29;;;;;;;1.77;0.63;;;;;;;23.58;55.47;98418.38;15278843;19;20020;-46
2023/06/14 17:06:03;;;;;;;1.17;0.60;;;;;;;23.72;54.83;98418.06;15277272;19;20007;-47
2023/06/14 17:11:27;;;;;;;2.67;0.50;;;;;;;23.91;55.07;98411.28;15277296;19;20010;-47
2023/06/14 17:16:55;;;;;;;0.63;0.60;;;;;;;23.88;55.51;98424.66;15295379;19;20010;-45
2023/06/14 17:22:19;;;;;;;1.65;0.80;;;;;;;24.13;55.68;98424.31;15289456;19;20024;-48
2023/06/14 17:27:44;;;;;;;2.85;0.60;;;;;;;23.88;54.60;98433.78;15283763;19;20010;-46
2023/06/14 17:33:13;;;;;;;2.05;0.60;;;;;;;23.65;54.60;98432.81;14784423;19;10000304;-48
2023/06/14 17:38:38;;;;;;;1.08;0.50;;;;;;;23.84;55.20;98435.34;15290254;19;20097;-46
2023/06/14 17:44:04;;;;;;;1.23;0.60;;;;;;;23.99;55.15;98430.16;15295286;19;20025;-46
2023/06/14 17:49:32;;;;;;;1.63;0.60;;;;;;;23.88;56.07;98438.44;15280711;19;20014;-40
2023/06/14 17:54:57;;;;;;;2.75;0.60;;;;;;;23.92;55.89;98440.47;15279265;19;20471;-41
2023/06/14 18:00:23;;;;;;;1.50;0.60;;;;;;;23.85;55.61;98437.00;15285330;19;20018;-40
2023/06/14 18:05:50;;;;;;;0.63;0.57;;;;;;;23.77;55.64;98442.94;15285922;19;20014;-41
2023/06/14 18:11:15;;;;;;;0.90;0.60;;;;;;;23.44;56.41;98445.34;15285208;19;20019;-43
2023/06/14 18:16:40;;;;;;;0.98;0.60;;;;;;;23.29;57.40;98450.53;15291059;19;20014;-40
2023/06/14 18:22:08;;;;;;;0.95;0.60;;;;;;;23.19;58.02;98453.88;15285744;19;20371;-40
2023/06/14 18:27:33;;;;;;;1.20;0.70;;;;;;;22.92;59.37;98454.41;15281253;19;20010;-41
2023/06/14 18:32:57;;;;;;;1.08;0.57;;;;;;;22.78;60.10;98457.41;15280662;19;20032;-40
2023/06/14 18:38:28;;;;;;;0.45;0.45;;;;;;;22.62;61.33;98471.88;15289894;19;20017;-41
2023/06/14 18:43:54;;;;;;;2.83;0.73;;;;;;;22.37;63.11;98463.81;15291379;19;20014;-41
2023/06/14 18:49:25;;;;;;;0.60;0.60;;;;;;;22.09;64.68;98463.44;15284502;19;20062;-40
2023/06/14 18:54:52;;;;;;;1.25;0.80;;;;;;;21.76;66.84;98470.25;15290132;19;20010;-40
2023/06/14 19:00:22;;;;;;;1.50;0.68;;;;;;;21.46;68.97;98471.03;15278474;19;20022;-40
2023/06/14 19:05:46;;;;;;;0.57;0.50;;;;;;;21.16;74.77;98466.38;15280462;19;20375;-40
2023/06/14 19:11:14;;;;;;;1.10;0.68;;;;;;;20.83;78.40;98466.75;15284762;19;20023;-40
2023/06/14 19:16:40;;;;;;;1.83;0.80;;;;;;;20.55;82.80;98470.81;15287017;19;20014;-40
2023/06/14 19:22:04;;;;;;;0.95;0.70;;;;;;;20.21;87.99;98464.78;15286220;19;20010;-40
2023/06/14 19:27:34;;;;;;;1.50;0.90;;;;;;;19.92;93.06;98473.41;15284176;19;20533;-39
2023/06/14 19:32:59;;;;;;;0.80;0.70;;;;;;;19.60;97.04;98475.25;15268947;19;20021;-39
2023/06/14 19:38:23;;;;;;;1.25;0.65;;;;;;;19.31;100.00;98472.88;15274534;19;20021;-40
2023/06/14 19:43:51;;;;;;;0.85;0.70;;;;;;;19.01;100.00;98478.84;15285310;19;20017;-40
2023/06/14 19:49:16;;;;;;;1.98;0.90;;;;;;;18.78;100.00;98484.78;15280597;19;20366;-40
2023/06/14 19:54:40;;;;;;;1.77;0.80;;;;;;;18.57;100.00;98485.84;15262912;19;20501;-42
2023/06/14 20:00:09;;;;;;;2.08;0.70;;;;;;;18.38;100.00;98485.66;15281162;19;20021;-42
2023/06/14 20:05:34;;;;;;;1.00;0.90;;;;;;;18.15;100.00;98492.38;15276502;19;20018;-42
2023/06/14 20:10:59;;;;;;;1.63;0.90;;;;;;;18.01;100.00;98496.13;15274257;19;20015;-43
2023/06/14 20:16:26;;;;;;;1.35;0.80;;;;;;;17.85;100.00;98503.63;15282671;19;20018;-41
2023/06/14 20:21:51;;;;;;;3.53;0.90;;;;;;;17.73;100.00;98502.53;15278518;19;20007;-43
2023/06/14 20:27:17;;;;;;;1.73;0.77;;;;;;;17.60;100.00;98499.78;15279848;19;20049;-42
2023/06/14 20:32:44;;;;;;;2.25;0.90;;;;;;;17.40;100.00;98501.38;15279637;19;20026;-43
2023/06/14 20:38:09;;;;;;;1.75;0.80;;;;;;;17.30;100.00;98500.09;15278165;19;20027;-43
2023/06/14 20:43:35;;;;;;;0.93;0.82;;;;;;;17.19;100.00;98499.63;15289939;19;20011;-44
2023/06/14 20:49:02;;;;;;;1.23;0.80;;;;;;;17.06;100.00;98499.56;15271808;19;20028;-41
2023/06/14 20:54:34;;;;;;;0.88;0.80;;;;;;;16.95;100.00;98498.25;15281334;19;20006;-41
2023/06/14 20:59:59;;;;;;;1.52;0.95;;;;;;;16.88;100.00;98506.34;15280560;19;20014;-40
2023/06/14 21:05:27;;;;;;;3.67;1.20;;;;;;;16.82;100.00;98509.03;15280290;19;20022;-43
2023/06/14 21:10:54;;;;;;;1.27;0.90;;;;;;;16.74;100.00;98508.13;15270961;19;20013;-43
2023/06/14 21:16:18;;;;;;;1.05;0.90;;;;;;;16.68;100.00;98513.53;15272522;19;20018;-43
2023/06/14 21:21:45;;;;;;;0.88;0.88;;;;;;;16.60;100.00;98507.22;15274353;19;20017;-40
2023/06/14 21:27:10;;;;;;;1.42;0.90;;;;;;;16.45;100.00;98523.63;15278393;19;20086;-43
2023/06/14 21:32:36;;;;;;;2.42;0.90;;;;;;;16.29;100.00;98515.75;15275802;19;20629;-40
2023/06/14 21:38:04;;;;;;;3.00;1.00;;;;;;;16.12;100.00;98515.19;15276744;19;20018;-40
2023/06/14 21:43:29;;;;;;;2.78;1.05;;;;;;;15.98;100.00;98516.94;15268630;19;20049;-40
2023/06/14 21:48:53;;;;;;;1.45;0.90;;;;;;;15.82;100.00;98515.25;15270630;19;20370;-44
2023/06/14 21:54:27;;;;;;;2.17;0.95;;;;;;;15.70;100.00;98521.19;15273507;19;20105;-41
2023/06/14 21:59:52;;;;;;;1.02;0.80;;;;;;;15.61;100.00;98519.63;15283561;19;20014;-41
2023/06/14 22:05:17;;;;;;;0.95;0.80;;;;;;;15.52;100.00;98515.38;15292306;19;20539;-44
2023/06/14 22:10:46;;;;;;;1.75;1.10;;;;;;;15.40;100.00;98518.56;15286812;19;20015;-42
2023/06/14 22:16:10;;;;;;;1.25;1.10;;;;;;;15.31;100.00;98519.72;15286024;19;20015;-43
2023/06/14 22:21:36;;;;;;;2.03;1.17;;;;;;;15.27;100.00;98518.41;15284914;19;20078;-40
2023/06/14 22:27:05;;;;;;;3.33;1.10;;;;;;;15.23;100.00;98517.09;15289923;19;20018;-40
2023/06/14 22:32:32;;;;;;;1.20;1.10;;;;;;;15.17;100.00;98517.84;15286699;19;20020;-42
2023/06/14 22:37:56;;;;;;;1.65;1.00;;;;;;;15.09;100.00;98516.94;15288921;19;20011;-41
2023/06/14 22:43:23;;;;;;;2.28;0.95;;;;;;;15.01;100.00;98519.72;15284050;19;20015;-39
2023/06/14 22:48:50;;;;;;;1.35;1.10;;;;;;;14.93;100.00;98522.53;15281329;19;20018;-43
2023/06/14 22:54:21;;;;;;;4.78;1.15;;;;;;;14.87;100.00;98523.31;15280238;19;20022;-40
2023/06/14 22:59:48;;;;;;;3.03;1.10;;;;;;;14.81;100.00;98516.75;15287321;19;20479;-42
2023/06/14 23:05:17;;;;;;;1.67;1.05;;;;;;;14.75;100.00;98526.47;15289091;19;20506;-43
2023/06/14 23:10:42;;;;;;;2.55;1.20;;;;;;;14.68;100.00;98520.09;15282683;19;20475;-42
2023/06/14 23:16:12;;;;;;;2.20;1.00;;;;;;;14.62;100.00;98520.81;15285909;19;20601;-43
2023/06/14 23:21:38;;;;;;;1.77;1.05;;;;;;;14.58;100.00;98516.78;15280078;19;20010;-42
2023/06/14 23:27:04;;;;;;;1.17;1.08;;;;;;;14.55;100.00;98515.28;15283469;19;20011;-41
2023/06/14 23:32:33;;;;;;;2.35;1.17;;;;;;;14.51;100.00;98519.38;15281470;19;20121;-40
2023/06/14 23:37:57;;;;;;;1.45;1.10;;;;;;;14.47;100.00;98518.06;15283153;19;20023;-43
2023/06/14 23:43:23;;;;;;;1.88;1.20;;;;;;;14.41;100.00;98519.63;15283092;19;20010;-42
2023/06/14 23:48:51;;;;;;;1.25;1.15;;;;;;;14.30;100.00;98522.78;15285956;19;20010;-44
2023/06/14 23:54:22;;;;;;;3.42;1.27;;;;;;;14.20;100.00;98517.66;15264629;19;20026;-42
2023/06/14 23:59:48;;;;;;;2.92;1.27;;;;;;;14.08;100.00;98517.22;15284214;19;20037;-42
